WetterOnline ( https://www.wetteronline.de )

Wetter aktuell Norderney

Aktuelles Wetter: Norderney (16m)

6-stündlich | Neueste Meldungen
Ortszeit Temperatur Wetter
Sa, 24.08. 20:00 22.4° C wolkenlos
Sa, 24.08. 14:00 25.6° C wolkenlos
Sa, 24.08. 8:00 17.9° C wolkenlos
Sa, 24.08. 2:00 17.2° C leicht bewölkt
Fr, 23.08. 20:00 19.6° C leicht bewölkt
Fr, 23.08. 14:00 20.6° C leicht bewölkt
Fr, 23.08. 8:00 16.0° C bedeckt
Fr, 23.08. 2:00 17.4° C wolkig
Ortszeit Temperatur Wetter
Sa, 24.08. 21:30 20.9° C leicht bewölkt
Sa, 24.08. 21:20 20.9° C leicht bewölkt
Sa, 24.08. 21:10 21.2° C wolkig
Sa, 24.08. 21:00 21.3° C wolkig
Sa, 24.08. 20:50 21.3° C wolkig
Sa, 24.08. 20:40 21.5° C wolkig
Sa, 24.08. 20:30 21.7° C wolkig
Sa, 24.08. 20:00 22.4° C wolkenlos
Sa, 24.08. 19:30 23.4° C wolkenlos
Sa, 24.08. 19:00 24.1° C wolkenlos
Sa, 24.08. 18:30 24.3° C wolkenlos
Sa, 24.08. 18:00 25.2° C wolkenlos
Ortszeit Relative Feuchte Sichtweite
Sa, 24.08. 20:00 68% 35 km
Sa, 24.08. 14:00 60% 30 km
Sa, 24.08. 8:00 92% 11 km
Sa, 24.08. 2:00 93% 11 km
Fr, 23.08. 20:00 86% 35 km
Fr, 23.08. 14:00 78% 20 km
Fr, 23.08. 8:00 85% 20 km
Fr, 23.08. 2:00 69% 50 km
Ortszeit Relative Feuchte Sichtweite
Sa, 24.08. 21:30 77% 35 km
Sa, 24.08. 21:20 77% -
Sa, 24.08. 21:10 76% -
Sa, 24.08. 21:00 75% 40 km
Sa, 24.08. 20:50 75% -
Sa, 24.08. 20:40 74% -
Sa, 24.08. 20:30 73% 45 km
Sa, 24.08. 20:00 68% 35 km
Sa, 24.08. 19:30 62% 40 km
Sa, 24.08. 19:00 59% 40 km
Sa, 24.08. 18:30 60% 40 km
Sa, 24.08. 18:00 56% 40 km
Ortszeit Niederschlagsmenge Niederschlagsart
Sa, 24.08. 20:00 0.0 l/m2 in 12 Std. -
Sa, 24.08. 14:00 0.0 l/m2 in 6 Std. -
Sa, 24.08. 8:00 0.0 l/m2 in 12 Std. -
Sa, 24.08. 2:00 0.0 l/m2 in 6 Std. -
Fr, 23.08. 20:00 0.0 l/m2 in 12 Std. -
Fr, 23.08. 14:00 0.0 l/m2 in 6 Std. -
Fr, 23.08. 8:00 0.0 l/m2 in 12 Std. -
Fr, 23.08. 2:00 0.0 l/m2 in 6 Std. -
Ortszeit Niederschlagsmenge Niederschlagsart
Sa, 24.08. 21:30 0.0 l/m2 in 1 Std. -
Sa, 24.08. 21:20 keine Meldung -
Sa, 24.08. 21:10 keine Meldung -
Sa, 24.08. 21:00 0.0 l/m2 in 1 Std. -
Sa, 24.08. 20:50 keine Meldung -
Sa, 24.08. 20:40 keine Meldung -
Sa, 24.08. 20:30 0.0 l/m2 in 1 Std. -
Sa, 24.08. 20:00 0.0 l/m2 in 1 Std. -
Sa, 24.08. 19:30 0.0 l/m2 in 1 Std. -
Sa, 24.08. 19:00 0.0 l/m2 in 1 Std. -
Sa, 24.08. 18:30 0.0 l/m2 in 1 Std. -
Sa, 24.08. 18:00 0.0 l/m2 in 1 Std. -
Ortszeit Stärke Spitze Richtung
km/h Bft. km/h Grad Sektor
Sa, 24.08. 20:00 19 3 35 70° O
Sa, 24.08. 14:00 14 3 29 90° O
Sa, 24.08. 8:00 11 2 20 80° O
Sa, 24.08. 2:00 11 2 20 120° SO
Fr, 23.08. 20:00 11 2 18 30° NO
Fr, 23.08. 14:00 17 3 26 300° NW
Fr, 23.08. 8:00 13 3 24 190° S
Fr, 23.08. 2:00 11 2 29 220° SW
Ortszeit Stärke Spitze Richtung
km/h Bft. km/h Grad Sektor
Sa, 24.08. 21:30 17 3 24 80° O
Sa, 24.08. 21:20 17 3 - 80° O
Sa, 24.08. 21:10 17 3 - 80° O
Sa, 24.08. 21:00 17 3 26 80° O
Sa, 24.08. 20:50 17 3 - 80° O
Sa, 24.08. 20:40 17 3 - 80° O
Sa, 24.08. 20:30 17 3 26 80° O
Sa, 24.08. 20:00 19 3 31 70° O
Sa, 24.08. 19:30 20 4 31 80° O
Sa, 24.08. 19:00 22 4 32 70° O
Sa, 24.08. 18:30 22 4 32 70° O
Sa, 24.08. 18:00 24 4 35 70° O
Ortszeit Untergrenze Bedeckung Gattung
total tief tief mittel hoch
Sa, 24.08. 20:00 10500 m 0/8 0/8 - - -
Sa, 24.08. 14:00 - 0/8 0/8 - - -
Sa, 24.08. 8:00 - 0/8 0/8 - - -
Sa, 24.08. 2:00 9000 m 6/8 0/8 - - -
Fr, 23.08. 20:00 9000 m 7/8 0/8 - - -
Fr, 23.08. 14:00 9000 m 8/8 0/8 - - -
Fr, 23.08. 8:00 6900 m 8/8 8/8 - - -
Fr, 23.08. 2:00 10500 m 8/8 0/8 - - -
Ortszeit Bedeckungsgrad in Achtel und Wolkenuntergrenze
Sa, 24.08. 21:30 5(10500m)
Sa, 24.08. 21:20 5(10500m)
Sa, 24.08. 21:10 8(10500m)
Sa, 24.08. 21:00 8(10500m)
Sa, 24.08. 20:50 8(10500m)
Sa, 24.08. 20:40 8(10500m)
Sa, 24.08. 20:30 7(10500m)
Sa, 24.08. 20:00 2(10500m)
Sa, 24.08. 19:30 keine Wolken
Sa, 24.08. 19:00 keine Wolken
Sa, 24.08. 18:30 keine Wolken
Sa, 24.08. 18:00 keine Wolken
Ortszeit Luftdruck NN (hPa) Tendenz (hPa in 3 Std.)
Sa, 24.08. 20:00 1021 - 0,9
Sa, 24.08. 14:00 1023 - 1,2
Sa, 24.08. 8:00 1024 - 0,6
Sa, 24.08. 2:00 1025 - 0,3
Fr, 23.08. 20:00 1026 - 0,5
Fr, 23.08. 14:00 1026 + 0,1
Fr, 23.08. 8:00 1025 + 0,5
Fr, 23.08. 2:00 1025 0,0
Ortszeit Luftdruck NN (hPa) Tendenz (hPa in 3 Std.)
Sa, 24.08. 21:30 1021 - 0,1
Sa, 24.08. 21:20 1021 keine Meldung
Sa, 24.08. 21:10 1021 keine Meldung
Sa, 24.08. 21:00 1021 - 0,4
Sa, 24.08. 20:50 1021 keine Meldung
Sa, 24.08. 20:40 1021 keine Meldung
Sa, 24.08. 20:30 1021 - 0,7
Sa, 24.08. 20:00 1021 - 0,9
Sa, 24.08. 19:30 1021 - 1,1
Sa, 24.08. 19:00 1021 - 1,1
Sa, 24.08. 18:30 1021 - 1,0
Sa, 24.08. 18:00 1021 - 1,1
Ortszeit Schneehöhe (cm)
Sa, 24.08. 20:00 -
Sa, 24.08. 14:00 -
Sa, 24.08. 8:00 -
Sa, 24.08. 2:00 -
Fr, 23.08. 20:00 -
Fr, 23.08. 14:00 -
Fr, 23.08. 8:00 -
Fr, 23.08. 2:00 -
Ortszeit Schneehöhe (cm)
Sa, 24.08. 21:30 -
Sa, 24.08. 21:20 -
Sa, 24.08. 21:10 -
Sa, 24.08. 21:00 -
Sa, 24.08. 20:50 -
Sa, 24.08. 20:40 -
Sa, 24.08. 20:30 -
Sa, 24.08. 20:00 -
Sa, 24.08. 19:30 -
Sa, 24.08. 19:00 -
Sa, 24.08. 18:30 -
Sa, 24.08. 18:00 -
Link zu dieser Seite / Seite empfehlen

Das Wetter in ...